Time;durP1;ratioP1;P1;durP2;ratioP2;P2;SDS_P1;SDS_P2;PMS_P1;PMS_P2;Temp;Humidity;BMP_temperature;BMP_pressure;BME280_temperature;BME280_humidity;BME280_pressure;Samples;Min_cycle;Max_cycle;Signal;HPM_P1;HPM_P2
2021/12/31 00:00:22;;;;;;;9.35;3.30;;;12.40;99.90;;;;;;4997701;28;20056;-83
2021/12/31 00:02:48;;;;;;;8.27;2.70;;;12.40;99.90;;;;;;5030039;28;20582;-83
2021/12/31 00:05:13;;;;;;;8.00;3.05;;;12.40;99.90;;;;;;5000515;28;20087;-83
2021/12/31 00:07:39;;;;;;;8.95;3.30;;;12.40;99.90;;;;;;4997738;28;20044;-83
2021/12/31 00:10:06;;;;;;;13.68;3.88;;;12.40;99.90;;;;;;4980058;28;20035;-83
2021/12/31 00:12:32;;;;;;;12.45;3.13;;;12.40;99.90;;;;;;5025843;28;20036;-83
2021/12/31 00:14:58;;;;;;;13.02;3.47;;;12.40;99.90;;;;;;5007275;28;20044;-83
2021/12/31 00:17:24;;;;;;;7.28;2.85;;;12.50;99.90;;;;;;5018312;28;20047;-83
2021/12/31 00:19:59;;;;;;;13.13;4.00;;;12.50;99.90;;;;;;5013426;28;20037;-83
2021/12/31 00:22:52;;;;;;;8.38;2.90;;;12.40;99.90;;;;;;5016304;28;20040;-83
2021/12/31 00:25:14;;;;;;;7.15;2.80;;;12.40;99.90;;;;;;5009261;28;20045;-83
2021/12/31 00:27:40;;;;;;;16.90;3.78;;;12.40;99.90;;;;;;5015727;28;20060;-83
2021/12/31 00:30:06;;;;;;;11.55;3.45;;;12.40;99.90;;;;;;5018928;28;20053;-83
2021/12/31 00:32:32;;;;;;;11.82;3.75;;;12.40;99.90;;;;;;5021155;28;20064;-83
2021/12/31 00:34:59;;;;;;;11.73;2.90;;;12.40;99.90;;;;;;5004556;28;20072;-84
2021/12/31 00:37:30;;;;;;;10.00;3.40;;;12.40;99.90;;;;;;5012384;28;20145;-83
2021/12/31 00:39:56;;;;;;;9.98;3.35;;;12.40;99.90;;;;;;5026016;28;20050;-83
2021/12/31 00:42:22;;;;;;;10.00;3.67;;;12.40;99.90;;;;;;5000822;28;20049;-83
2021/12/31 00:44:48;;;;;;;10.00;3.33;;;12.40;99.90;;;;;;5022651;28;20029;-83
2021/12/31 00:47:14;;;;;;;10.95;3.35;;;12.40;99.90;;;;;;5023254;28;20037;-83
2021/12/31 00:49:40;;;;;;;11.88;3.72;;;12.40;99.90;;;;;;5027868;28;20159;-83
2021/12/31 00:52:07;;;;;;;12.48;3.85;;;12.30;99.90;;;;;;4998201;28;20041;-83
2021/12/31 00:54:34;;;;;;;10.27;3.40;;;12.40;99.90;;;;;;5013857;28;20033;-84
2021/12/31 00:57:03;;;;;;;6.90;3.25;;;12.40;99.90;;;;;;5010309;28;20044;-84
2021/12/31 00:59:32;;;;;;;12.45;3.40;;;12.40;99.90;;;;;;4997652;28;20041;-83
2021/12/31 01:02:05;;;;;;;10.70;3.17;;;12.40;99.90;;;;;;5000536;28;20094;-83
2021/12/31 01:04:32;;;;;;;8.15;3.95;;;12.40;99.90;;;;;;5063246;28;20079;-84
2021/12/31 01:06:59;;;;;;;8.15;3.35;;;12.40;99.90;;;;;;5011995;28;20552;-83
2021/12/31 01:09:26;;;;;;;6.63;3.55;;;12.40;99.90;;;;;;5007652;28;20072;-84
2021/12/31 01:11:52;;;;;;;8.85;3.53;;;12.40;99.90;;;;;;4991401;28;20033;-83
2021/12/31 01:14:29;;;;;;;11.52;4.35;;;12.40;99.90;;;;;;4991910;28;20783;-84
2021/12/31 01:16:59;;;;;;;14.27;4.60;;;12.40;99.90;;;;;;4989583;28;20431;-84
2021/12/31 01:21:52;;;;;;;12.65;3.95;;;12.50;99.90;;;;;;4988485;28;20069;-84
2021/12/31 01:24:19;;;;;;;10.20;3.75;;;12.60;99.90;;;;;;4993608;28;20131;-83
2021/12/31 01:26:45;;;;;;;11.63;3.72;;;12.50;99.90;;;;;;4991835;28;20103;-83
2021/12/31 01:29:11;;;;;;;7.80;3.25;;;12.50;99.90;;;;;;4965172;28;20037;-83
2021/12/31 01:31:37;;;;;;;10.10;3.85;;;12.60;99.90;;;;;;4963190;28;20034;-83
2021/12/31 01:34:02;;;;;;;10.68;3.60;;;12.60;99.90;;;;;;4994876;28;20045;-83
2021/12/31 01:36:28;;;;;;;6.25;3.13;;;12.60;99.90;;;;;;5012343;28;20675;-83
2021/12/31 01:38:54;;;;;;;7.72;3.65;;;12.60;99.90;;;;;;4991303;28;20605;-83
2021/12/31 01:41:21;;;;;;;9.80;3.60;;;12.60;99.90;;;;;;4992902;28;20056;-83
2021/12/31 01:43:47;;;;;;;8.63;3.47;;;12.60;99.90;;;;;;4996334;28;20135;-82
2021/12/31 01:46:13;;;;;;;9.07;4.07;;;12.60;99.90;;;;;;5002317;28;20483;-82
2021/12/31 01:49:01;;;;;;;7.60;3.58;;;12.60;99.90;;;;;;4978905;28;20065;-82
2021/12/31 01:51:28;;;;;;;13.70;3.80;;;12.60;99.90;;;;;;5026479;28;20049;-82
2021/12/31 01:53:54;;;;;;;11.75;3.67;;;12.50;99.90;;;;;;4978671;28;20043;-84
2021/12/31 01:56:22;;;;;;;13.02;3.67;;;12.50;99.90;;;;;;4988491;28;20050;-82
2021/12/31 01:58:54;;;;;;;9.90;4.00;;;12.50;99.90;;;;;;5009378;28;20041;-82
2021/12/31 02:01:20;;;;;;;8.30;3.83;;;12.50;99.90;;;;;;5007934;28;20069;-82
2021/12/31 02:03:46;;;;;;;10.40;3.85;;;12.50;99.90;;;;;;4983248;28;20509;-82
2021/12/31 02:06:12;;;;;;;8.38;3.95;;;12.50;99.90;;;;;;4999321;28;20196;-82
2021/12/31 02:08:37;;;;;;;11.80;4.25;;;12.50;99.90;;;;;;5017656;28;20132;-82
2021/12/31 02:11:03;;;;;;;10.70;4.15;;;12.50;99.90;;;;;;4995589;28;20689;-82
2021/12/31 02:13:29;;;;;;;11.52;4.10;;;12.50;99.90;;;;;;5042948;28;20065;-82
2021/12/31 02:15:55;;;;;;;10.45;3.78;;;12.50;99.90;;;;;;5003665;28;20029;-83
2021/12/31 02:18:21;;;;;;;12.23;4.22;;;12.60;99.90;;;;;;5016502;28;20049;-82
2021/12/31 02:20:48;;;;;;;13.07;4.13;;;12.60;99.90;;;;;;5012196;28;20124;-82
2021/12/31 02:23:20;;;;;;;10.77;3.90;;;12.60;99.90;;;;;;5008268;28;20080;-82
2021/12/31 02:25:46;;;;;;;11.07;4.32;;;12.60;99.90;;;;;;5021248;28;20498;-82
2021/12/31 02:28:12;;;;;;;11.70;4.85;;;12.60;99.90;;;;;;4994652;28;20465;-82
2021/12/31 02:30:38;;;;;;;10.52;3.75;;;12.60;99.90;;;;;;5007865;28;20464;-82
2021/12/31 02:33:04;;;;;;;8.40;5.10;;;12.60;99.90;;;;;;5009438;28;20045;-82
2021/12/31 02:35:31;;;;;;;6.57;4.15;;;12.60;99.90;;;;;;5020308;28;20132;-82
2021/12/31 02:37:58;;;;;;;8.20;4.32;;;12.70;99.90;;;;;;5003593;28;20040;-82
2021/12/31 02:40:24;;;;;;;12.63;4.95;;;12.60;99.90;;;;;;5033509;28;20048;-82
2021/12/31 02:42:50;;;;;;;10.52;5.25;;;12.70;99.90;;;;;;5007134;28;20037;-82
2021/12/31 02:45:16;;;;;;;9.40;4.97;;;12.70;99.90;;;;;;5030397;28;20044;-82
2021/12/31 02:47:46;;;;;;;12.15;5.45;;;12.70;99.90;;;;;;5021348;28;20033;-82
2021/12/31 02:50:18;;;;;;;7.90;5.18;;;12.70;99.90;;;;;;5009772;28;20037;-83
2021/12/31 02:52:45;;;;;;;12.60;5.35;;;12.70;99.90;;;;;;5021857;28;20037;-82
2021/12/31 02:55:12;;;;;;;10.88;5.43;;;12.80;99.90;;;;;;5011655;28;20037;-82
2021/12/31 02:57:39;;;;;;;11.15;5.43;;;12.80;99.90;;;;;;5020350;28;20478;-82
2021/12/31 03:00:07;;;;;;;11.90;5.45;;;12.80;99.90;;;;;;5001676;28;20080;-82
2021/12/31 03:02:37;;;;;;;9.95;5.55;;;12.80;99.90;;;;;;4995652;28;20087;-83
2021/12/31 03:05:03;;;;;;;7.70;5.05;;;12.80;99.90;;;;;;5000627;28;20044;-82
2021/12/31 03:07:30;;;;;;;7.18;4.97;;;12.80;99.90;;;;;;5019317;28;20095;-82
2021/12/31 03:09:58;;;;;;;8.75;5.32;;;12.90;99.90;;;;;;5002749;28;20040;-82
2021/12/31 03:12:24;;;;;;;6.43;5.20;;;12.90;99.90;;;;;;5002866;28;20068;-82
2021/12/31 03:14:50;;;;;;;10.60;5.95;;;12.90;99.90;;;;;;5008395;28;20040;-82
2021/12/31 03:17:18;;;;;;;12.27;5.65;;;12.90;99.90;;;;;;4997423;28;20090;-82
2021/12/31 03:19:44;;;;;;;10.93;6.10;;;12.90;99.90;;;;;;5004936;28;20047;-82
2021/12/31 03:22:10;;;;;;;8.05;6.03;;;12.90;99.90;;;;;;5007267;28;20037;-82
2021/12/31 03:24:36;;;;;;;10.27;5.35;;;12.90;99.90;;;;;;4979335;28;20052;-82
2021/12/31 03:27:02;;;;;;;9.40;5.70;;;13.00;99.90;;;;;;4997110;28;20041;-83
2021/12/31 03:29:28;;;;;;;10.45;5.15;;;13.00;99.90;;;;;;5023593;28;20042;-82
2021/12/31 03:31:53;;;;;;;7.47;5.40;;;13.00;99.90;;;;;;5008310;28;20505;-82
2021/12/31 03:34:19;;;;;;;10.18;5.43;;;13.00;99.90;;;;;;5006983;28;20167;-83
2021/12/31 03:36:46;;;;;;;8.57;5.70;;;13.00;99.90;;;;;;4994202;28;20034;-82
2021/12/31 03:39:12;;;;;;;8.32;4.97;;;13.00;99.90;;;;;;5010584;28;20098;-82
2021/12/31 03:41:38;;;;;;;8.02;4.85;;;13.00;99.90;;;;;;4995316;28;20044;-83
2021/12/31 03:44:05;;;;;;;9.73;5.18;;;13.00;99.90;;;;;;5025150;28;20045;-82
2021/12/31 03:46:31;;;;;;;8.38;5.00;;;13.00;99.90;;;;;;5021895;28;20041;-83
2021/12/31 03:48:57;;;;;;;7.55;5.53;;;13.00;99.90;;;;;;4996909;28;20059;-82
2021/12/31 03:51:23;;;;;;;10.40;5.40;;;13.00;99.90;;;;;;5017961;28;20037;-82
2021/12/31 03:53:49;;;;;;;10.48;5.38;;;13.00;99.90;;;;;;5028764;28;20537;-83
2021/12/31 03:56:15;;;;;;;8.32;4.82;;;13.00;99.90;;;;;;5008005;28;20390;-82
2021/12/31 03:58:40;;;;;;;6.95;5.20;;;13.10;99.90;;;;;;5018645;28;20044;-83
2021/12/31 04:01:06;;;;;;;8.07;5.43;;;13.10;99.90;;;;;;5031626;28;20120;-82
2021/12/31 04:03:32;;;;;;;12.75;6.60;;;13.10;99.90;;;;;;5015576;28;20036;-82
2021/12/31 04:05:58;;;;;;;9.00;4.85;;;13.10;99.90;;;;;;4999306;28;20059;-83
2021/12/31 04:08:23;;;;;;;8.00;4.80;;;13.10;99.90;;;;;;5014782;28;20091;-83
2021/12/31 04:10:49;;;;;;;9.57;5.28;;;13.10;99.90;;;;;;4998927;28;20401;-82
2021/12/31 04:13:15;;;;;;;8.38;4.97;;;13.20;99.90;;;;;;5032223;28;20079;-83
2021/12/31 04:15:41;;;;;;;9.38;5.03;;;13.10;99.90;;;;;;5028604;28;20546;-83
2021/12/31 04:18:07;;;;;;;9.57;5.28;;;13.10;99.90;;;;;;4999660;28;20073;-82
2021/12/31 04:20:55;;;;;;;11.65;5.97;;;13.10;99.90;;;;;;5025965;28;20067;-82
2021/12/31 04:23:33;;;;;;;9.77;5.50;;;13.10;99.90;;;;;;4999195;28;20033;-83
2021/12/31 04:26:00;;;;;;;9.88;5.75;;;13.10;99.90;;;;;;5014724;28;20046;-82
2021/12/31 04:28:27;;;;;;;6.75;5.07;;;13.20;99.90;;;;;;5000559;28;20029;-83
2021/12/31 04:30:53;;;;;;;8.35;5.25;;;13.20;99.90;;;;;;4998840;28;20033;-83
2021/12/31 04:33:19;;;;;;;9.40;5.88;;;13.20;99.90;;;;;;5015406;28;20033;-82
2021/12/31 04:35:45;;;;;;;8.70;5.53;;;13.20;99.90;;;;;;5006409;28;20449;-82
2021/12/31 04:38:10;;;;;;;8.75;5.40;;;13.20;99.90;;;;;;5009647;28;20057;-82
2021/12/31 04:40:36;;;;;;;11.43;5.30;;;13.10;99.90;;;;;;4999948;28;20038;-83
2021/12/31 04:43:02;;;;;;;7.68;5.63;;;13.20;99.90;;;;;;5003251;28;20533;-83
2021/12/31 04:45:28;;;;;;;11.45;5.40;;;13.10;99.90;;;;;;4998194;28;20033;-83
2021/12/31 04:47:54;;;;;;;8.75;6.30;;;13.10;99.90;;;;;;5000532;28;20040;-83
2021/12/31 04:50:19;;;;;;;7.95;5.20;;;13.10;99.90;;;;;;4999075;28;20531;-83
2021/12/31 04:52:46;;;;;;;8.93;4.82;;;13.20;99.90;;;;;;5014662;28;20032;-83
2021/12/31 04:55:12;;;;;;;8.48;5.32;;;13.10;99.90;;;;;;5000847;28;20414;-83
2021/12/31 04:57:38;;;;;;;7.18;5.22;;;13.10;99.90;;;;;;5004819;28;20033;-83
2021/12/31 05:00:08;;;;;;;7.43;4.80;;;13.10;99.90;;;;;;4988989;28;20055;-83
2021/12/31 05:02:34;;;;;;;9.02;5.30;;;13.10;99.90;;;;;;5024825;28;20036;-83
2021/12/31 05:05:01;;;;;;;6.55;4.70;;;13.20;99.90;;;;;;5035876;28;20053;-83
2021/12/31 05:07:28;;;;;;;7.32;4.85;;;13.10;99.90;;;;;;5009687;28;20463;-83
2021/12/31 05:09:54;;;;;;;10.95;4.97;;;13.10;99.90;;;;;;5010834;28;20041;-83
2021/12/31 05:12:25;;;;;;;8.48;4.40;;;13.10;99.90;;;;;;4996285;28;20029;-83
2021/12/31 05:14:51;;;;;;;6.35;3.80;;;13.00;99.90;;;;;;5018163;28;20049;-83
2021/12/31 05:17:17;;;;;;;7.68;4.32;;;13.10;99.90;;;;;;5010871;28;20037;-82
2021/12/31 05:19:44;;;;;;;10.02;3.88;;;13.10;99.90;;;;;;5034048;28;20099;-82
2021/12/31 05:22:13;;;;;;;5.40;3.83;;;13.10;99.90;;;;;;5011111;28;20514;-83
2021/12/31 05:24:39;;;;;;;5.43;3.42;;;13.10;99.90;;;;;;5003675;28;20099;-83
2021/12/31 05:27:06;;;;;;;6.68;3.40;;;13.10;99.90;;;;;;4999047;28;20061;-82
2021/12/31 05:29:32;;;;;;;4.70;3.10;;;13.10;99.90;;;;;;5002764;28;20453;-83
2021/12/31 05:31:58;;;;;;;5.68;3.10;;;13.10;99.90;;;;;;4999666;28;20029;-82
2021/12/31 05:34:24;;;;;;;8.77;2.95;;;13.10;99.90;;;;;;5008643;28;20517;-82
2021/12/31 05:36:49;;;;;;;4.38;2.90;;;13.10;99.90;;;;;;5058032;28;20113;-83
2021/12/31 05:39:15;;;;;;;5.43;3.00;;;13.00;99.90;;;;;;4999726;28;20452;-83
2021/12/31 05:41:41;;;;;;;4.32;2.80;;;13.00;99.90;;;;;;5025565;28;20072;-82
2021/12/31 05:44:07;;;;;;;5.20;2.83;;;13.00;99.90;;;;;;5006060;28;20044;-83
2021/12/31 05:46:33;;;;;;;5.93;3.25;;;13.00;99.90;;;;;;5021523;28;20091;-83
2021/12/31 05:48:59;;;;;;;5.72;2.92;;;13.00;99.90;;;;;;5013374;28;20033;-82
2021/12/31 05:51:26;;;;;;;6.20;3.20;;;13.00;99.90;;;;;;5054571;28;20033;-82
2021/12/31 05:53:52;;;;;;;7.57;3.33;;;12.90;99.90;;;;;;4998264;28;20030;-82
2021/12/31 05:56:18;;;;;;;7.70;3.45;;;12.90;99.90;;;;;;5010412;28;20406;-83
2021/12/31 05:58:44;;;;;;;5.50;3.28;;;12.90;99.90;;;;;;5006245;28;20057;-83
2021/12/31 06:01:10;;;;;;;5.85;2.88;;;12.90;99.90;;;;;;5010829;28;20037;-83
2021/12/31 06:03:35;;;;;;;5.38;3.05;;;12.90;99.90;;;;;;5002883;28;20036;-83
2021/12/31 06:06:01;;;;;;;4.97;3.25;;;12.90;99.90;;;;;;5012780;28;20051;-82
2021/12/31 06:08:27;;;;;;;6.28;3.10;;;12.90;99.90;;;;;;4992038;28;20029;-83
2021/12/31 06:10:53;;;;;;;5.85;2.80;;;12.80;99.90;;;;;;5034110;28;20044;-83
2021/12/31 06:13:19;;;;;;;5.05;3.00;;;12.80;99.90;;;;;;5013808;28;20032;-83
2021/12/31 06:15:47;;;;;;;5.00;2.90;;;12.80;99.90;;;;;;4999188;28;20190;-83
2021/12/31 06:18:13;;;;;;;5.35;2.95;;;12.80;99.90;;;;;;5001956;28;20037;-83
2021/12/31 06:20:41;;;;;;;6.68;3.03;;;12.80;99.90;;;;;;5002761;28;20034;-83
2021/12/31 06:23:07;;;;;;;4.65;2.85;;;12.80;99.90;;;;;;5014865;28;20053;-83
2021/12/31 06:25:33;;;;;;;6.90;2.97;;;12.80;99.90;;;;;;5024353;28;20037;-83
2021/12/31 06:28:00;;;;;;;4.05;2.78;;;12.70;99.90;;;;;;5031928;28;20043;-83
2021/12/31 06:30:27;;;;;;;5.10;3.10;;;12.70;99.90;;;;;;5014617;28;20170;-83
2021/12/31 06:32:52;;;;;;;4.65;2.80;;;12.70;99.90;;;;;;5031569;28;20112;-83
2021/12/31 06:35:18;;;;;;;5.93;3.50;;;12.60;99.90;;;;;;5013137;28;20120;-83
2021/12/31 06:37:44;;;;;;;4.28;2.70;;;12.60;99.90;;;;;;5027191;28;20053;-83
2021/12/31 06:40:12;;;;;;;7.22;3.00;;;12.60;99.90;;;;;;5004001;28;20052;-83
2021/12/31 06:42:38;;;;;;;4.78;3.03;;;12.60;99.90;;;;;;4996478;28;20041;-83
2021/12/31 06:45:04;;;;;;;6.85;2.92;;;12.50;99.90;;;;;;4995464;28;20425;-83
2021/12/31 06:47:30;;;;;;;7.72;3.50;;;12.60;99.90;;;;;;5015297;28;20113;-83
2021/12/31 06:49:55;;;;;;;6.07;3.58;;;12.50;99.90;;;;;;4996475;28;20124;-83
2021/12/31 06:52:21;;;;;;;5.63;3.33;;;12.50;99.90;;;;;;4996206;28;20502;-83
2021/12/31 06:54:47;;;;;;;7.97;2.92;;;12.40;99.90;;;;;;5007380;28;20041;-83
2021/12/31 06:57:13;;;;;;;6.70;3.35;;;12.40;99.90;;;;;;5039107;28;20068;-83
2021/12/31 06:59:39;;;;;;;7.75;3.25;;;12.40;99.90;;;;;;4987067;28;20047;-83
2021/12/31 07:02:04;;;;;;;4.00;3.08;;;12.40;99.90;;;;;;4998687;28;20049;-83
2021/12/31 07:04:30;;;;;;;6.55;3.60;;;12.40;99.90;;;;;;5022104;28;20038;-83
2021/12/31 07:06:56;;;;;;;4.95;3.17;;;12.40;99.90;;;;;;5026852;28;20071;-85
2021/12/31 07:09:21;;;;;;;6.32;3.72;;;12.40;99.90;;;;;;5011503;28;20076;-83
2021/12/31 07:11:47;;;;;;;6.28;3.70;;;12.30;99.90;;;;;;4993734;28;20056;-83
2021/12/31 07:14:13;;;;;;;8.85;3.53;;;12.30;99.90;;;;;;5028251;28;20063;-83
2021/12/31 07:16:39;;;;;;;6.68;3.80;;;12.30;99.90;;;;;;5008785;28;20046;-83
2021/12/31 07:19:04;;;;;;;8.70;3.55;;;12.30;99.90;;;;;;4994268;28;20521;-83
2021/12/31 07:21:30;;;;;;;8.80;3.38;;;12.30;99.90;;;;;;5019373;28;20037;-83
2021/12/31 07:23:56;;;;;;;6.63;3.85;;;12.30;99.90;;;;;;5007860;28;20482;-83
2021/12/31 07:26:21;;;;;;;6.20;3.33;;;12.30;99.90;;;;;;4996696;28;20040;-85
2021/12/31 07:28:47;;;;;;;7.45;3.63;;;12.30;99.90;;;;;;5003733;28;20044;-83
2021/12/31 07:31:14;;;;;;;9.45;3.67;;;12.30;99.90;;;;;;4994667;28;20052;-83
2021/12/31 07:33:41;;;;;;;4.97;3.50;;;12.30;99.90;;;;;;5005444;28;20037;-83
2021/12/31 07:36:07;;;;;;;4.95;3.13;;;12.20;99.90;;;;;;5018877;28;20116;-84
2021/12/31 07:38:40;;;;;;;7.70;3.70;;;12.20;99.90;;;;;;4997059;28;20197;-83
2021/12/31 07:41:06;;;;;;;5.68;3.47;;;12.20;99.90;;;;;;5009744;28;20122;-83
2021/12/31 07:43:32;;;;;;;6.13;3.90;;;12.20;99.90;;;;;;5013716;28;20033;-83
2021/12/31 07:45:58;;;;;;;5.55;3.47;;;12.20;99.90;;;;;;5007480;28;20040;-83
2021/12/31 07:48:25;;;;;;;7.53;3.60;;;12.20;99.90;;;;;;5005929;28;20038;-82
2021/12/31 07:50:52;;;;;;;6.82;3.58;;;12.20;99.90;;;;;;5001113;28;20052;-81
2021/12/31 07:53:18;;;;;;;9.48;3.72;;;12.10;99.90;;;;;;4997912;28;20840;-84
2021/12/31 07:55:44;;;;;;;6.63;3.70;;;12.10;99.90;;;;;;5024228;28;20041;-85
2021/12/31 07:58:09;;;;;;;7.03;3.72;;;12.20;99.90;;;;;;5040374;28;20525;-85
2021/12/31 08:00:36;;;;;;;7.47;3.30;;;12.10;99.90;;;;;;5041608;28;20616;-85
2021/12/31 08:03:02;;;;;;;5.85;3.70;;;12.10;99.90;;;;;;4999215;28;20037;-85
2021/12/31 08:05:29;;;;;;;5.25;3.60;;;12.00;99.90;;;;;;5003602;28;20076;-85
2021/12/31 08:07:55;;;;;;;7.80;3.50;;;12.00;99.90;;;;;;4964485;28;20046;-83
2021/12/31 08:10:21;;;;;;;9.68;4.15;;;12.00;99.90;;;;;;5002836;28;20052;-86
2021/12/31 08:12:47;;;;;;;5.75;3.58;;;12.00;99.90;;;;;;4994706;28;20128;-85
2021/12/31 08:15:14;;;;;;;9.68;3.72;;;12.10;99.90;;;;;;5005246;28;20131;-84
2021/12/31 08:17:39;;;;;;;6.28;3.97;;;12.00;99.90;;;;;;5002125;28;20425;-85
2021/12/31 08:20:06;;;;;;;3.85;3.30;;;12.00;99.90;;;;;;4999354;28;20041;-85
2021/12/31 08:22:31;;;;;;;7.50;4.25;;;12.00;99.90;;;;;;5020124;28;20073;-84
2021/12/31 08:24:57;;;;;;;9.20;3.85;;;12.00;99.90;;;;;;4989669;28;20088;-84
2021/12/31 08:27:23;;;;;;;5.90;3.70;;;12.00;99.90;;;;;;4993794;28;20039;-84
2021/12/31 08:29:48;;;;;;;5.80;3.40;;;12.00;99.90;;;;;;4989109;28;20041;-83
2021/12/31 08:32:15;;;;;;;6.65;3.70;;;12.20;99.90;;;;;;5004685;28;20036;-84
2021/12/31 08:34:40;;;;;;;8.60;4.00;;;12.10;99.90;;;;;;5007842;28;20029;-84
2021/12/31 08:37:06;;;;;;;5.93;3.70;;;12.20;99.90;;;;;;5010323;28;20476;-83
2021/12/31 08:39:32;;;;;;;5.85;3.72;;;12.20;99.90;;;;;;5023752;28;20069;-84
2021/12/31 08:42:00;;;;;;;9.18;3.80;;;12.10;99.90;;;;;;5003155;28;20038;-85
2021/12/31 08:44:27;;;;;;;7.93;3.90;;;12.20;99.90;;;;;;5008764;28;20076;-84
2021/12/31 08:46:52;;;;;;;7.45;3.75;;;12.20;99.90;;;;;;5025423;28;20119;-84
2021/12/31 08:49:19;;;;;;;6.85;3.95;;;12.30;99.90;;;;;;5035001;28;21862;-85
2021/12/31 08:51:45;;;;;;;8.90;3.72;;;12.30;99.90;;;;;;5006179;28;20021;-86
2021/12/31 08:54:11;;;;;;;7.00;4.00;;;12.30;99.90;;;;;;4994823;28;20393;-85
2021/12/31 08:56:36;;;;;;;5.72;3.42;;;12.30;99.90;;;;;;5026036;28;20070;-85
2021/12/31 08:59:03;;;;;;;7.15;3.45;;;12.30;99.90;;;;;;5001822;28;20030;-86
2021/12/31 09:01:29;;;;;;;7.22;3.45;;;12.30;99.90;;;;;;5003558;28;20076;-86
2021/12/31 09:03:55;;;;;;;10.75;4.05;;;12.30;99.90;;;;;;5000337;28;20072;-96
2021/12/31 09:06:21;;;;;;;7.57;3.70;;;12.30;99.90;;;;;;5003244;28;20132;-86
2021/12/31 09:08:47;;;;;;;5.57;3.95;;;12.40;99.90;;;;;;4992663;28;20588;-87
2021/12/31 09:11:13;;;;;;;8.23;4.25;;;12.30;99.90;;;;;;5021999;28;20034;-85
2021/12/31 09:13:38;;;;;;;7.15;3.67;;;12.30;99.90;;;;;;5004182;28;20117;-84
2021/12/31 09:16:04;;;;;;;5.28;3.80;;;12.40;99.90;;;;;;5001850;28;20045;-84
2021/12/31 09:18:30;;;;;;;7.53;4.07;;;12.30;99.90;;;;;;5003678;28;20124;-84
2021/12/31 09:20:56;;;;;;;7.43;4.57;;;12.30;99.90;;;;;;5010435;28;20555;-84
2021/12/31 09:23:21;;;;;;;8.10;4.70;;;12.40;99.90;;;;;;5011084;28;20417;-85
2021/12/31 09:25:48;;;;;;;11.00;4.38;;;12.40;99.90;;;;;;5000382;28;20045;-85
2021/12/31 09:28:16;;;;;;;4.80;4.03;;;12.40;99.90;;;;;;5013145;28;20030;-84
2021/12/31 09:30:42;;;;;;;7.70;3.50;;;12.40;99.90;;;;;;4994919;28;20749;-83
2021/12/31 09:33:08;;;;;;;6.10;3.85;;;12.40;99.90;;;;;;4998916;28;20523;-83
2021/12/31 09:35:34;;;;;;;7.03;4.10;;;12.30;99.90;;;;;;5014376;28;20040;-82
2021/12/31 09:38:00;;;;;;;9.25;4.00;;;12.40;99.90;;;;;;5014920;28;20032;-84
2021/12/31 09:40:27;;;;;;;7.85;3.75;;;12.40;99.90;;;;;;5027091;28;20040;-85
2021/12/31 09:43:12;;;;;;;5.05;3.40;;;12.40;99.90;;;;;;4999951;28;20049;-84
2021/12/31 09:45:39;;;;;;;8.75;5.80;;;12.40;99.90;;;;;;5004184;28;20052;-93
2021/12/31 09:48:09;;;;;;;15.90;11.13;;;12.50;99.90;;;;;;4997069;28;20068;-85
2021/12/31 09:50:38;;;;;;;23.98;17.17;;;12.60;99.90;;;;;;4986451;28;20076;-85
2021/12/31 09:53:05;;;;;;;54.65;48.60;;;12.60;99.90;;;;;;5014684;28;20047;-86
2021/12/31 09:55:38;;;;;;;39.40;32.80;;;12.60;99.90;;;;;;4999987;28;20134;-85
2021/12/31 09:58:04;;;;;;;;;;;12.60;99.90;;;;;;4999396;28;20057;-86
2021/12/31 10:00:29;;;;;;;12.95;9.05;;;12.60;99.90;;;;;;5006730;28;19932;-85
2021/12/31 10:03:31;;;;;;;36.28;24.90;;;12.60;99.90;;;;;;5007294;28;20508;-84
2021/12/31 10:05:59;;;;;;;14.38;10.52;;;12.60;99.90;;;;;;4978077;28;20421;-83
2021/12/31 10:08:27;;;;;;;24.20;17.75;;;12.50;99.90;;;;;;5016505;28;20064;-83
2021/12/31 10:11:07;;;;;;;17.05;14.80;;;12.60;99.90;;;;;;5012491;28;20044;-83
2021/12/31 10:13:39;;;;;;;8.00;5.68;;;12.50;99.90;;;;;;5006209;28;20043;-85
2021/12/31 10:16:06;;;;;;;8.52;6.38;;;12.50;99.90;;;;;;5024795;28;20044;-88
2021/12/31 10:18:37;;;;;;;11.07;6.68;;;12.60;99.90;;;;;;5008455;28;20560;-88
2021/12/31 10:21:04;;;;;;;8.80;5.18;;;12.50;99.90;;;;;;5020187;28;20122;-90
2021/12/31 10:23:31;;;;;;;11.90;6.82;;;12.60;99.90;;;;;;4997602;28;20179;-92
2021/12/31 10:26:19;;;;;;;11.35;5.55;;;12.60;99.90;;;;;;5028144;28;20045;-93
2021/12/31 10:28:56;;;;;;;10.32;6.70;;;12.60;99.90;;;;;;5011422;28;20044;-93
2021/12/31 10:31:22;;;;;;;10.02;5.85;;;12.50;99.90;;;;;;5028150;28;20033;-95
2021/12/31 10:33:49;;;;;;;10.27;5.13;;;12.50;99.90;;;;;;5000197;28;20029;-93
2021/12/31 10:36:32;;;;;;;8.13;5.30;;;12.50;99.90;;;;;;5020383;28;20047;-96
2021/12/31 10:39:15;;;;;;;12.27;9.43;;;12.50;99.90;;;;;;5015183;28;20033;-93
2021/12/31 10:41:41;;;;;;;12.82;6.57;;;12.50;99.90;;;;;;5007916;28;20041;-93
2021/12/31 10:44:06;;;;;;;13.25;8.75;;;12.50;99.90;;;;;;5023381;28;20045;-95
2021/12/31 10:46:32;;;;;;;11.20;7.47;;;12.50;99.90;;;;;;5003306;28;20040;-93
2021/12/31 10:49:06;;;;;;;12.02;7.78;;;12.50;99.90;;;;;;5004867;28;20029;-94
2021/12/31 10:51:38;;;;;;;10.80;8.10;;;12.50;99.90;;;;;;4986442;28;20037;-87
2021/12/31 10:55:01;;;;;;;12.43;11.13;;;12.40;99.90;;;;;;5016238;28;20518;-87
2021/12/31 10:57:35;;;;;;;11.63;6.30;;;12.50;99.90;;;;;;5016462;28;20513;-83
2021/12/31 11:00:01;;;;;;;13.45;9.10;;;12.50;99.90;;;;;;5004719;28;20037;-86
2021/12/31 11:02:27;;;;;;;20.83;17.17;;;12.50;99.90;;;;;;5000424;28;20485;-85
2021/12/31 11:04:54;;;;;;;13.02;11.45;;;12.50;99.90;;;;;;5012768;28;20037;-87
2021/12/31 11:07:20;;;;;;;14.48;11.02;;;12.50;99.90;;;;;;4999189;28;20045;-89
2021/12/31 11:09:46;;;;;;;10.10;7.55;;;12.50;99.90;;;;;;4992999;28;20045;-86
2021/12/31 11:12:14;;;;;;;12.57;7.63;;;12.50;99.90;;;;;;5005789;28;20039;-86
2021/12/31 11:14:40;;;;;;;14.18;9.95;;;12.60;99.90;;;;;;5025054;28;20033;-88
2021/12/31 11:17:06;;;;;;;21.85;18.33;;;12.50;99.90;;;;;;5008745;28;20909;-86
2021/12/31 11:19:32;;;;;;;20.73;15.55;;;12.60;99.90;;;;;;5009248;28;20048;-87
2021/12/31 11:21:59;;;;;;;14.93;12.27;;;12.60;99.90;;;;;;4998563;28;20039;-87
2021/12/31 11:24:38;;;;;;;13.38;9.48;;;12.60;99.90;;;;;;5012787;28;20040;-81
2021/12/31 11:27:26;;;;;;;13.32;9.50;;;12.60;99.90;;;;;;5007007;28;20041;-80
2021/12/31 11:29:52;;;;;;;16.38;9.48;;;12.50;99.90;;;;;;5010543;28;20033;-80
2021/12/31 11:32:19;;;;;;;15.07;10.18;;;12.60;99.90;;;;;;5002970;28;20036;-81
2021/12/31 11:35:04;;;;;;;12.70;8.50;;;12.60;99.90;;;;;;5027744;28;20040;-80
2021/12/31 11:37:43;;;;;;;12.75;8.15;;;12.50;99.90;;;;;;5012549;28;20036;-81
2021/12/31 11:40:31;;;;;;;12.63;8.18;;;12.50;99.90;;;;;;5030101;28;20048;-81
2021/12/31 11:43:15;;;;;;;12.63;8.57;;;12.50;99.90;;;;;;5014932;28;20037;-81
2021/12/31 11:45:42;;;;;;;10.25;7.60;;;12.50;99.90;;;;;;5003377;28;20037;-80
2021/12/31 11:48:48;;;;;;;16.83;12.63;;;12.50;99.90;;;;;;5031282;28;20111;-80
2021/12/31 11:51:34;;;;;;;15.27;8.25;;;12.60;99.90;;;;;;5012484;28;20509;-81
2021/12/31 11:54:00;;;;;;;13.07;8.88;;;12.60;99.90;;;;;;5027381;28;20476;-80
2021/12/31 11:56:41;;;;;;;22.48;20.10;;;12.50;99.90;;;;;;5020316;28;20048;-80
2021/12/31 11:59:07;;;;;;;16.77;11.02;;;12.60;99.90;;;;;;5008084;28;20151;-79
2021/12/31 12:01:52;;;;;;;18.92;13.15;;;12.50;99.90;;;;;;5003666;28;20096;-80
2021/12/31 12:04:19;;;;;;;14.02;8.50;;;12.50;99.90;;;;;;5008873;28;20040;-81
2021/12/31 12:06:51;;;;;;;35.22;16.25;;;12.50;99.90;;;;;;5012386;28;20052;-82
2021/12/31 12:09:17;;;;;;;15.23;9.23;;;12.40;99.90;;;;;;5004296;28;20041;-82
2021/12/31 12:12:07;;;;;;;14.15;12.75;;;12.40;99.90;;;;;;5031222;28;20394;-82
2021/12/31 12:14:53;;;;;;;13.10;9.05;;;12.50;99.90;;;;;;5008665;28;20048;-82
2021/12/31 12:17:28;;;;;;;15.40;11.23;;;12.50;99.90;;;;;;5000370;28;20033;-81
2021/12/31 12:19:56;;;;;;;17.52;10.25;;;12.50;99.90;;;;;;5020035;28;20612;-80
2021/12/31 12:22:28;;;;;;;14.35;9.27;;;12.50;99.90;;;;;;5015215;28;20033;-80
2021/12/31 12:24:55;;;;;;;18.83;11.90;;;12.40;99.90;;;;;;5041952;28;20047;-82
2021/12/31 12:27:23;;;;;;;21.02;17.75;;;12.40;99.90;;;;;;5014704;28;20064;-81
2021/12/31 12:29:50;;;;;;;15.25;12.05;;;12.40;99.90;;;;;;5013324;28;20103;-80
2021/12/31 12:32:28;;;;;;;25.48;14.10;;;12.40;99.90;;;;;;5001651;28;20112;-79
2021/12/31 12:34:54;;;;;;;12.35;8.70;;;12.40;99.90;;;;;;5026923;28;20043;-82
2021/12/31 12:37:27;;;;;;;11.43;6.10;;;12.40;99.90;;;;;;5028667;28;20041;-82
2021/12/31 12:40:00;;;;;;;14.57;7.88;;;12.40;99.90;;;;;;5009705;28;20047;-78
2021/12/31 12:42:26;;;;;;;29.83;18.83;;;12.40;99.90;;;;;;5012892;28;20064;-78
2021/12/31 12:45:08;;;;;;;15.82;8.02;;;12.40;99.90;;;;;;5031033;28;20193;-78
2021/12/31 12:47:37;;;;;;;15.60;10.63;;;12.30;99.90;;;;;;5022294;28;20440;-79
2021/12/31 12:50:09;;;;;;;16.17;8.90;;;12.20;99.90;;;;;;5029665;28;20156;-79